sensor_id;sensor_type;location;lat;lon;timestamp;temperature;humidity
27573;DHT22;15009;53.082;8.768;2022-07-10T00:02:01;15.10;99.90
27573;DHT22;15009;53.082;8.768;2022-07-10T00:05:02;15.10;99.90
27573;DHT22;15009;53.082;8.768;2022-07-10T00:08:03;15.30;99.90
27573;DHT22;15009;53.082;8.768;2022-07-10T00:11:04;15.30;99.90
27573;DHT22;15009;53.082;8.768;2022-07-10T00:14:05;15.40;99.90
27573;DHT22;15009;53.082;8.768;2022-07-10T00:17:05;15.40;99.90
27573;DHT22;15009;53.082;8.768;2022-07-10T00:20:07;15.40;99.90
27573;DHT22;15009;53.082;8.768;2022-07-10T00:23:07;15.40;99.90
27573;DHT22;15009;53.082;8.768;2022-07-10T00:26:08;15.30;99.90
27573;DHT22;15009;53.082;8.768;2022-07-10T00:29:09;15.30;99.90
27573;DHT22;15009;53.082;8.768;2022-07-10T00:32:10;15.40;99.90
27573;DHT22;15009;53.082;8.768;2022-07-10T00:35:11;15.30;99.90
27573;DHT22;15009;53.082;8.768;2022-07-10T00:38:11;15.00;99.90
27573;DHT22;15009;53.082;8.768;2022-07-10T00:41:12;15.10;99.90
27573;DHT22;15009;53.082;8.768;2022-07-10T00:44:13;15.20;99.90
27573;DHT22;15009;53.082;8.768;2022-07-10T00:47:13;15.20;99.90
27573;DHT22;15009;53.082;8.768;2022-07-10T00:50:17;15.20;99.90
27573;DHT22;15009;53.082;8.768;2022-07-10T00:53:18;15.30;99.90
27573;DHT22;15009;53.082;8.768;2022-07-10T00:56:21;15.40;99.90
27573;DHT22;15009;53.082;8.768;2022-07-10T00:59:23;15.40;99.90
27573;DHT22;15009;53.082;8.768;2022-07-10T01:02:24;15.30;99.90
27573;DHT22;15009;53.082;8.768;2022-07-10T01:05:25;15.30;99.90
27573;DHT22;15009;53.082;8.768;2022-07-10T01:08:27;15.10;99.90
27573;DHT22;15009;53.082;8.768;2022-07-10T01:11:28;15.10;99.90
27573;DHT22;15009;53.082;8.768;2022-07-10T01:14:29;15.10;99.90
27573;DHT22;15009;53.082;8.768;2022-07-10T01:17:30;15.00;99.90
27573;DHT22;15009;53.082;8.768;2022-07-10T01:20:32;15.00;99.90
27573;DHT22;15009;53.082;8.768;2022-07-10T01:23:33;15.10;99.90
27573;DHT22;15009;53.082;8.768;2022-07-10T01:26:34;15.00;99.90
27573;DHT22;15009;53.082;8.768;2022-07-10T01:29:35;15.10;99.90
27573;DHT22;15009;53.082;8.768;2022-07-10T01:32:40;15.00;99.90
27573;DHT22;15009;53.082;8.768;2022-07-10T01:35:41;15.10;99.90
27573;DHT22;15009;53.082;8.768;2022-07-10T01:38:42;14.90;99.90
27573;DHT22;15009;53.082;8.768;2022-07-10T01:41:43;15.00;99.90
27573;DHT22;15009;53.082;8.768;2022-07-10T01:44:44;15.00;99.90
27573;DHT22;15009;53.082;8.768;2022-07-10T01:47:45;15.00;99.90
27573;DHT22;15009;53.082;8.768;2022-07-10T01:50:45;15.00;99.90
27573;DHT22;15009;53.082;8.768;2022-07-10T01:53:46;15.00;99.90
27573;DHT22;15009;53.082;8.768;2022-07-10T01:56:47;14.90;99.90
27573;DHT22;15009;53.082;8.768;2022-07-10T01:59:47;15.00;99.90
27573;DHT22;15009;53.082;8.768;2022-07-10T02:02:48;15.10;99.90
27573;DHT22;15009;53.082;8.768;2022-07-10T02:06:08;15.10;99.90
27573;DHT22;15009;53.082;8.768;2022-07-10T02:09:09;15.10;99.90
27573;DHT22;15009;53.082;8.768;2022-07-10T02:12:12;15.10;99.90
27573;DHT22;15009;53.082;8.768;2022-07-10T02:15:13;15.10;99.90
27573;DHT22;15009;53.082;8.768;2022-07-10T02:18:14;15.10;99.90
27573;DHT22;15009;53.082;8.768;2022-07-10T02:21:14;15.10;99.90
27573;DHT22;15009;53.082;8.768;2022-07-10T02:24:15;15.10;99.90
27573;DHT22;15009;53.082;8.768;2022-07-10T02:27:16;14.90;99.90
27573;DHT22;15009;53.082;8.768;2022-07-10T02:30:16;14.90;99.90
27573;DHT22;15009;53.082;8.768;2022-07-10T02:33:17;14.80;99.90
27573;DHT22;15009;53.082;8.768;2022-07-10T02:36:17;14.80;99.90
27573;DHT22;15009;53.082;8.768;2022-07-10T02:39:18;14.60;99.90
27573;DHT22;15009;53.082;8.768;2022-07-10T02:42:19;14.60;99.90
27573;DHT22;15009;53.082;8.768;2022-07-10T02:45:19;14.70;99.90
27573;DHT22;15009;53.082;8.768;2022-07-10T02:48:20;14.70;99.90
27573;DHT22;15009;53.082;8.768;2022-07-10T02:51:21;14.70;99.90
27573;DHT22;15009;53.082;8.768;2022-07-10T02:54:21;14.80;99.90
27573;DHT22;15009;53.082;8.768;2022-07-10T02:57:22;14.80;99.90
27573;DHT22;15009;53.082;8.768;2022-07-10T03:00:23;14.80;99.90
27573;DHT22;15009;53.082;8.768;2022-07-10T03:03:23;14.80;99.90
27573;DHT22;15009;53.082;8.768;2022-07-10T03:06:24;14.80;99.90
27573;DHT22;15009;53.082;8.768;2022-07-10T03:09:24;14.70;99.90
27573;DHT22;15009;53.082;8.768;2022-07-10T03:12:25;14.60;99.90
27573;DHT22;15009;53.082;8.768;2022-07-10T03:15:26;14.60;99.90
27573;DHT22;15009;53.082;8.768;2022-07-10T03:18:26;14.50;99.90
27573;DHT22;15009;53.082;8.768;2022-07-10T03:21:27;14.60;99.90
27573;DHT22;15009;53.082;8.768;2022-07-10T03:24:27;14.50;99.90
27573;DHT22;15009;53.082;8.768;2022-07-10T03:27:28;14.60;99.90
27573;DHT22;15009;53.082;8.768;2022-07-10T03:30:29;14.60;99.90
27573;DHT22;15009;53.082;8.768;2022-07-10T03:33:29;14.60;99.90
27573;DHT22;15009;53.082;8.768;2022-07-10T03:36:30;14.50;99.90
27573;DHT22;15009;53.082;8.768;2022-07-10T03:39:31;14.50;99.90
27573;DHT22;15009;53.082;8.768;2022-07-10T03:42:31;14.50;99.90
27573;DHT22;15009;53.082;8.768;2022-07-10T03:45:32;14.40;99.90
27573;DHT22;15009;53.082;8.768;2022-07-10T03:48:33;14.50;99.90
27573;DHT22;15009;53.082;8.768;2022-07-10T03:51:34;14.50;99.90
27573;DHT22;15009;53.082;8.768;2022-07-10T03:54:34;14.40;99.90
27573;DHT22;15009;53.082;8.768;2022-07-10T03:57:35;14.50;99.90
27573;DHT22;15009;53.082;8.768;2022-07-10T04:00:54;14.70;99.90
27573;DHT22;15009;53.082;8.768;2022-07-10T04:03:54;14.70;99.90
27573;DHT22;15009;53.082;8.768;2022-07-10T04:06:55;14.80;99.90
27573;DHT22;15009;53.082;8.768;2022-07-10T04:09:55;15.20;99.90
27573;DHT22;15009;53.082;8.768;2022-07-10T04:12:56;16.50;99.90
27573;DHT22;15009;53.082;8.768;2022-07-10T04:15:57;16.20;99.90
27573;DHT22;15009;53.082;8.768;2022-07-10T04:18:57;15.60;99.90
27573;DHT22;15009;53.082;8.768;2022-07-10T04:21:58;15.30;99.90
27573;DHT22;15009;53.082;8.768;2022-07-10T04:24:59;15.20;99.90
27573;DHT22;15009;53.082;8.768;2022-07-10T04:27:59;14.80;99.90
27573;DHT22;15009;53.082;8.768;2022-07-10T04:31:00;14.90;99.90
27573;DHT22;15009;53.082;8.768;2022-07-10T04:34:00;14.90;99.90
27573;DHT22;15009;53.082;8.768;2022-07-10T04:37:01;15.00;99.90
27573;DHT22;15009;53.082;8.768;2022-07-10T04:40:02;15.00;99.90
27573;DHT22;15009;53.082;8.768;2022-07-10T04:43:03;15.10;99.90
27573;DHT22;15009;53.082;8.768;2022-07-10T04:46:03;15.10;99.90
27573;DHT22;15009;53.082;8.768;2022-07-10T04:49:04;15.00;99.90
27573;DHT22;15009;53.082;8.768;2022-07-10T04:52:05;15.40;99.90
27573;DHT22;15009;53.082;8.768;2022-07-10T04:55:06;17.20;99.90
27573;DHT22;15009;53.082;8.768;2022-07-10T04:58:07;20.00;99.90
27573;DHT22;15009;53.082;8.768;2022-07-10T05:01:08;21.50;99.90
27573;DHT22;15009;53.082;8.768;2022-07-10T05:04:08;23.10;99.90
27573;DHT22;15009;53.082;8.768;2022-07-10T05:07:09;22.50;99.90
27573;DHT22;15009;53.082;8.768;2022-07-10T05:10:09;19.60;99.90
27573;DHT22;15009;53.082;8.768;2022-07-10T05:13:11;18.30;99.90
27573;DHT22;15009;53.082;8.768;2022-07-10T05:16:12;17.50;99.90
27573;DHT22;15009;53.082;8.768;2022-07-10T05:19:15;17.20;99.90
27573;DHT22;15009;53.082;8.768;2022-07-10T05:22:16;17.50;99.90
27573;DHT22;15009;53.082;8.768;2022-07-10T05:25:17;17.60;99.90
27573;DHT22;15009;53.082;8.768;2022-07-10T05:28:17;17.50;99.90
27573;DHT22;15009;53.082;8.768;2022-07-10T05:31:18;17.50;99.90
27573;DHT22;15009;53.082;8.768;2022-07-10T05:34:18;17.00;99.90
27573;DHT22;15009;53.082;8.768;2022-07-10T05:37:19;16.70;99.90
27573;DHT22;15009;53.082;8.768;2022-07-10T05:40:20;16.40;99.90
27573;DHT22;15009;53.082;8.768;2022-07-10T05:43:20;16.10;99.90
27573;DHT22;15009;53.082;8.768;2022-07-10T05:46:21;16.30;99.90
27573;DHT22;15009;53.082;8.768;2022-07-10T05:49:22;16.40;99.90
27573;DHT22;15009;53.082;8.768;2022-07-10T05:52:22;16.00;99.90
27573;DHT22;15009;53.082;8.768;2022-07-10T05:55:23;15.80;99.90
27573;DHT22;15009;53.082;8.768;2022-07-10T05:58:24;16.00;99.90
27573;DHT22;15009;53.082;8.768;2022-07-10T06:01:25;16.20;99.90
27573;DHT22;15009;53.082;8.768;2022-07-10T06:04:26;16.50;99.90
27573;DHT22;15009;53.082;8.768;2022-07-10T06:07:27;17.20;99.90
27573;DHT22;15009;53.082;8.768;2022-07-10T06:10:28;17.30;99.90
27573;DHT22;15009;53.082;8.768;2022-07-10T06:13:28;17.90;99.90
27573;DHT22;15009;53.082;8.768;2022-07-10T06:16:29;21.90;99.90
27573;DHT22;15009;53.082;8.768;2022-07-10T06:19:29;24.60;99.90
27573;DHT22;15009;53.082;8.768;2022-07-10T06:22:30;26.40;99.90
27573;DHT22;15009;53.082;8.768;2022-07-10T06:25:31;27.20;95.80
27573;DHT22;15009;53.082;8.768;2022-07-10T06:28:34;27.00;93.70
27573;DHT22;15009;53.082;8.768;2022-07-10T06:31:35;26.90;91.10
27573;DHT22;15009;53.082;8.768;2022-07-10T06:34:36;26.60;90.80
27573;DHT22;15009;53.082;8.768;2022-07-10T06:37:36;23.80;92.60
27573;DHT22;15009;53.082;8.768;2022-07-10T06:40:38;22.30;95.70
27573;DHT22;15009;53.082;8.768;2022-07-10T06:43:38;20.80;99.10
27573;DHT22;15009;53.082;8.768;2022-07-10T06:46:39;19.80;99.90
27573;DHT22;15009;53.082;8.768;2022-07-10T06:49:40;18.90;99.90
27573;DHT22;15009;53.082;8.768;2022-07-10T06:52:41;18.80;99.90
27573;DHT22;15009;53.082;8.768;2022-07-10T06:55:41;18.50;99.90
27573;DHT22;15009;53.082;8.768;2022-07-10T06:58:43;18.80;99.90
27573;DHT22;15009;53.082;8.768;2022-07-10T07:01:43;19.20;99.90
27573;DHT22;15009;53.082;8.768;2022-07-10T07:04:44;18.90;99.90
27573;DHT22;15009;53.082;8.768;2022-07-10T07:07:46;18.70;99.90
27573;DHT22;15009;53.082;8.768;2022-07-10T07:10:47;18.50;99.90
27573;DHT22;15009;53.082;8.768;2022-07-10T07:13:47;18.40;99.90
27573;DHT22;15009;53.082;8.768;2022-07-10T07:16:48;18.30;99.90
27573;DHT22;15009;53.082;8.768;2022-07-10T07:19:59;17.90;99.90
27573;DHT22;15009;53.082;8.768;2022-07-10T07:23:19;17.40;99.90
27573;DHT22;15009;53.082;8.768;2022-07-10T07:26:19;17.10;99.90
27573;DHT22;15009;53.082;8.768;2022-07-10T07:29:20;16.90;99.90
27573;DHT22;15009;53.082;8.768;2022-07-10T07:32:20;16.90;99.90
27573;DHT22;15009;53.082;8.768;2022-07-10T07:35:21;17.30;99.90
27573;DHT22;15009;53.082;8.768;2022-07-10T07:38:22;18.40;99.90
27573;DHT22;15009;53.082;8.768;2022-07-10T07:41:22;20.70;99.90
27573;DHT22;15009;53.082;8.768;2022-07-10T07:44:23;21.10;99.90
27573;DHT22;15009;53.082;8.768;2022-07-10T07:47:24;20.80;99.90
27573;DHT22;15009;53.082;8.768;2022-07-10T07:50:27;21.50;99.90
27573;DHT22;15009;53.082;8.768;2022-07-10T07:53:29;20.50;99.90
27573;DHT22;15009;53.082;8.768;2022-07-10T07:56:29;19.90;99.90
27573;DHT22;15009;53.082;8.768;2022-07-10T07:59:30;19.10;99.90
27573;DHT22;15009;53.082;8.768;2022-07-10T08:02:30;18.90;99.90
27573;DHT22;15009;53.082;8.768;2022-07-10T08:05:31;18.80;99.90
27573;DHT22;15009;53.082;8.768;2022-07-10T08:08:34;18.30;99.90
27573;DHT22;15009;53.082;8.768;2022-07-10T08:11:35;18.20;99.90
27573;DHT22;15009;53.082;8.768;2022-07-10T08:14:35;18.30;99.90
27573;DHT22;15009;53.082;8.768;2022-07-10T08:17:36;18.60;99.90
27573;DHT22;15009;53.082;8.768;2022-07-10T08:20:37;19.20;99.90
27573;DHT22;15009;53.082;8.768;2022-07-10T08:23:38;19.80;99.90
27573;DHT22;15009;53.082;8.768;2022-07-10T08:26:39;19.70;99.90
27573;DHT22;15009;53.082;8.768;2022-07-10T08:29:39;21.10;99.90
27573;DHT22;15009;53.082;8.768;2022-07-10T08:32:40;24.00;99.60
27573;DHT22;15009;53.082;8.768;2022-07-10T08:35:41;24.30;92.40
27573;DHT22;15009;53.082;8.768;2022-07-10T08:38:41;23.30;93.70
27573;DHT22;15009;53.082;8.768;2022-07-10T08:41:42;21.50;95.80
27573;DHT22;15009;53.082;8.768;2022-07-10T08:44:43;20.70;97.60
27573;DHT22;15009;53.082;8.768;2022-07-10T08:47:44;20.20;98.90
27573;DHT22;15009;53.082;8.768;2022-07-10T08:50:47;20.20;99.50
27573;DHT22;15009;53.082;8.768;2022-07-10T08:53:49;20.40;99.90
27573;DHT22;15009;53.082;8.768;2022-07-10T08:56:52;20.50;98.40
27573;DHT22;15009;53.082;8.768;2022-07-10T08:59:53;20.80;98.10
27573;DHT22;15009;53.082;8.768;2022-07-10T09:02:54;20.90;98.10
27573;DHT22;15009;53.082;8.768;2022-07-10T09:05:55;21.00;97.40
27573;DHT22;15009;53.082;8.768;2022-07-10T09:09:04;20.70;97.50
27573;DHT22;15009;53.082;8.768;2022-07-10T09:12:05;20.30;98.00
27573;DHT22;15009;53.082;8.768;2022-07-10T09:15:17;20.50;98.40
27573;DHT22;15009;53.082;8.768;2022-07-10T09:18:20;20.20;99.30
27573;DHT22;15009;53.082;8.768;2022-07-10T09:21:23;20.50;99.10
27573;DHT22;15009;53.082;8.768;2022-07-10T09:24:24;20.20;99.80
27573;DHT22;15009;53.082;8.768;2022-07-10T09:27:25;20.20;99.50
27573;DHT22;15009;53.082;8.768;2022-07-10T09:30:39;20.00;99.00
27573;DHT22;15009;53.082;8.768;2022-07-10T09:33:40;20.20;98.90
27573;DHT22;15009;53.082;8.768;2022-07-10T09:36:40;20.70;98.90
27573;DHT22;15009;53.082;8.768;2022-07-10T09:40:01;21.20;99.10
27573;DHT22;15009;53.082;8.768;2022-07-10T09:43:03;21.60;96.90
27573;DHT22;15009;53.082;8.768;2022-07-10T09:46:08;22.20;96.70
27573;DHT22;15009;53.082;8.768;2022-07-10T09:49:13;22.10;95.40
27573;DHT22;15009;53.082;8.768;2022-07-10T09:52:14;22.40;95.40
27573;DHT22;15009;53.082;8.768;2022-07-10T09:55:19;22.20;95.00
27573;DHT22;15009;53.082;8.768;2022-07-10T09:58:24;22.20;94.90
27573;DHT22;15009;53.082;8.768;2022-07-10T10:01:27;21.70;94.60
27573;DHT22;15009;53.082;8.768;2022-07-10T10:04:29;20.90;96.10
27573;DHT22;15009;53.082;8.768;2022-07-10T10:07:32;20.40;96.70
27573;DHT22;15009;53.082;8.768;2022-07-10T10:10:36;20.20;98.30
27573;DHT22;15009;53.082;8.768;2022-07-10T10:13:38;20.40;98.20
27573;DHT22;15009;53.082;8.768;2022-07-10T10:16:39;20.70;97.20
27573;DHT22;15009;53.082;8.768;2022-07-10T10:19:40;20.70;96.50
27573;DHT22;15009;53.082;8.768;2022-07-10T10:22:59;20.60;96.90
27573;DHT22;15009;53.082;8.768;2022-07-10T10:26:01;20.50;97.30
27573;DHT22;15009;53.082;8.768;2022-07-10T10:29:04;20.20;97.40
27573;DHT22;15009;53.082;8.768;2022-07-10T10:32:06;19.80;98.70
27573;DHT22;15009;53.082;8.768;2022-07-10T10:35:07;19.80;99.30
27573;DHT22;15009;53.082;8.768;2022-07-10T10:38:11;20.30;99.60
27573;DHT22;15009;53.082;8.768;2022-07-10T10:41:37;20.50;99.50
27573;DHT22;15009;53.082;8.768;2022-07-10T10:44:38;20.90;99.60
27573;DHT22;15009;53.082;8.768;2022-07-10T10:47:58;20.80;98.90
27573;DHT22;15009;53.082;8.768;2022-07-10T10:50:59;21.20;97.80
27573;DHT22;15009;53.082;8.768;2022-07-10T10:54:05;20.90;97.90
27573;DHT22;15009;53.082;8.768;2022-07-10T10:57:17;20.80;97.80
27573;DHT22;15009;53.082;8.768;2022-07-10T11:00:32;20.90;98.60
27573;DHT22;15009;53.082;8.768;2022-07-10T11:03:37;20.60;99.20
27573;DHT22;15009;53.082;8.768;2022-07-10T11:06:49;20.90;99.20
27573;DHT22;15009;53.082;8.768;2022-07-10T11:09:50;20.90;99.40
27573;DHT22;15009;53.082;8.768;2022-07-10T11:13:12;21.30;99.60
27573;DHT22;15009;53.082;8.768;2022-07-10T11:16:13;21.40;99.40
27573;DHT22;15009;53.082;8.768;2022-07-10T11:19:20;21.50;99.30
27573;DHT22;15009;53.082;8.768;2022-07-10T11:25:49;21.80;98.90
27573;DHT22;15009;53.082;8.768;2022-07-10T11:29:04;21.60;98.80
27573;DHT22;15009;53.082;8.768;2022-07-10T11:32:06;20.90;99.70
27573;DHT22;15009;53.082;8.768;2022-07-10T11:35:12;20.30;99.90
27573;DHT22;15009;53.082;8.768;2022-07-10T11:38:18;19.80;99.90
27573;DHT22;15009;53.082;8.768;2022-07-10T11:41:20;19.30;99.90
27573;DHT22;15009;53.082;8.768;2022-07-10T11:44:23;18.80;99.90
27573;DHT22;15009;53.082;8.768;2022-07-10T11:47:23;18.50;99.90
27573;DHT22;15009;53.082;8.768;2022-07-10T11:50:24;19.40;99.90
27573;DHT22;15009;53.082;8.768;2022-07-10T11:53:26;20.30;99.90
27573;DHT22;15009;53.082;8.768;2022-07-10T11:56:29;20.70;99.90
27573;DHT22;15009;53.082;8.768;2022-07-10T11:59:33;21.10;99.90
27573;DHT22;15009;53.082;8.768;2022-07-10T12:02:33;21.50;99.90
27573;DHT22;15009;53.082;8.768;2022-07-10T12:05:36;21.40;99.90
27573;DHT22;15009;53.082;8.768;2022-07-10T12:08:46;20.40;99.90
27573;DHT22;15009;53.082;8.768;2022-07-10T12:12:03;19.70;99.90
27573;DHT22;15009;53.082;8.768;2022-07-10T12:15:05;19.10;99.90
27573;DHT22;15009;53.082;8.768;2022-07-10T12:18:15;18.80;99.90
27573;DHT22;15009;53.082;8.768;2022-07-10T12:21:16;19.00;99.90
27573;DHT22;15009;53.082;8.768;2022-07-10T12:24:18;19.40;99.90
27573;DHT22;15009;53.082;8.768;2022-07-10T12:27:38;19.60;99.90
27573;DHT22;15009;53.082;8.768;2022-07-10T12:30:43;19.50;99.90
27573;DHT22;15009;53.082;8.768;2022-07-10T12:33:50;19.50;99.90
27573;DHT22;15009;53.082;8.768;2022-07-10T12:36:53;19.40;99.90
27573;DHT22;15009;53.082;8.768;2022-07-10T12:39:53;19.60;99.90
27573;DHT22;15009;53.082;8.768;2022-07-10T12:43:01;19.60;99.90
27573;DHT22;15009;53.082;8.768;2022-07-10T12:49:11;20.00;99.90
27573;DHT22;15009;53.082;8.768;2022-07-10T12:55:35;19.60;99.90
27573;DHT22;15009;53.082;8.768;2022-07-10T12:58:43;19.30;99.90
27573;DHT22;15009;53.082;8.768;2022-07-10T13:01:45;19.40;99.90
27573;DHT22;15009;53.082;8.768;2022-07-10T13:04:55;19.50;99.90
27573;DHT22;15009;53.082;8.768;2022-07-10T13:11:07;19.50;99.90
27573;DHT22;15009;53.082;8.768;2022-07-10T13:14:07;19.80;99.90
27573;DHT22;15009;53.082;8.768;2022-07-10T13:17:08;20.00;99.90
27573;DHT22;15009;53.082;8.768;2022-07-10T13:20:09;20.00;99.90
27573;DHT22;15009;53.082;8.768;2022-07-10T13:23:11;20.20;99.90
27573;DHT22;15009;53.082;8.768;2022-07-10T13:26:12;20.40;99.90
27573;DHT22;15009;53.082;8.768;2022-07-10T13:29:13;20.20;99.90
27573;DHT22;15009;53.082;8.768;2022-07-10T13:32:13;20.10;99.90
27573;DHT22;15009;53.082;8.768;2022-07-10T13:35:14;20.50;99.90
27573;DHT22;15009;53.082;8.768;2022-07-10T13:38:15;20.70;99.90
27573;DHT22;15009;53.082;8.768;2022-07-10T13:41:19;20.50;99.90
27573;DHT22;15009;53.082;8.768;2022-07-10T13:44:20;20.70;99.90
27573;DHT22;15009;53.082;8.768;2022-07-10T13:47:20;20.50;99.90
27573;DHT22;15009;53.082;8.768;2022-07-10T13:50:22;20.20;99.90
27573;DHT22;15009;53.082;8.768;2022-07-10T13:53:23;19.90;99.90
27573;DHT22;15009;53.082;8.768;2022-07-10T13:56:23;19.40;99.90
27573;DHT22;15009;53.082;8.768;2022-07-10T13:59:25;19.50;99.90
27573;DHT22;15009;53.082;8.768;2022-07-10T14:02:26;19.20;99.90
27573;DHT22;15009;53.082;8.768;2022-07-10T14:05:27;18.80;99.90
27573;DHT22;15009;53.082;8.768;2022-07-10T14:08:28;18.70;99.90
27573;DHT22;15009;53.082;8.768;2022-07-10T14:11:29;18.60;99.90
27573;DHT22;15009;53.082;8.768;2022-07-10T14:14:30;18.40;99.90
27573;DHT22;15009;53.082;8.768;2022-07-10T14:17:30;18.40;99.90
27573;DHT22;15009;53.082;8.768;2022-07-10T14:20:31;18.90;99.90
27573;DHT22;15009;53.082;8.768;2022-07-10T14:23:55;19.00;99.90
27573;DHT22;15009;53.082;8.768;2022-07-10T14:26:56;19.10;99.90
27573;DHT22;15009;53.082;8.768;2022-07-10T14:29:58;19.00;99.90
27573;DHT22;15009;53.082;8.768;2022-07-10T14:32:59;19.00;99.90
27573;DHT22;15009;53.082;8.768;2022-07-10T14:36:00;19.40;99.90
27573;DHT22;15009;53.082;8.768;2022-07-10T14:39:01;19.30;99.90
27573;DHT22;15009;53.082;8.768;2022-07-10T14:42:03;19.30;99.90
27573;DHT22;15009;53.082;8.768;2022-07-10T14:45:05;19.50;99.90
27573;DHT22;15009;53.082;8.768;2022-07-10T14:48:06;19.80;99.90
27573;DHT22;15009;53.082;8.768;2022-07-10T14:51:07;20.10;99.90
27573;DHT22;15009;53.082;8.768;2022-07-10T14:54:10;20.30;99.90
27573;DHT22;15009;53.082;8.768;2022-07-10T14:57:11;20.40;99.90
27573;DHT22;15009;53.082;8.768;2022-07-10T15:00:13;20.30;99.90
27573;DHT22;15009;53.082;8.768;2022-07-10T15:03:14;20.20;99.90
27573;DHT22;15009;53.082;8.768;2022-07-10T15:06:14;20.00;99.90
27573;DHT22;15009;53.082;8.768;2022-07-10T15:09:15;19.50;99.90
27573;DHT22;15009;53.082;8.768;2022-07-10T15:12:16;19.60;99.90
27573;DHT22;15009;53.082;8.768;2022-07-10T15:15:17;19.50;99.90
27573;DHT22;15009;53.082;8.768;2022-07-10T15:18:18;19.40;99.90
27573;DHT22;15009;53.082;8.768;2022-07-10T15:21:18;19.10;99.90
27573;DHT22;15009;53.082;8.768;2022-07-10T15:24:19;19.40;99.90
27573;DHT22;15009;53.082;8.768;2022-07-10T15:27:20;19.50;99.90
27573;DHT22;15009;53.082;8.768;2022-07-10T15:30:20;19.80;99.90
27573;DHT22;15009;53.082;8.768;2022-07-10T15:33:21;19.70;99.90
27573;DHT22;15009;53.082;8.768;2022-07-10T15:36:21;19.70;99.90
27573;DHT22;15009;53.082;8.768;2022-07-10T15:39:22;20.00;99.90
27573;DHT22;15009;53.082;8.768;2022-07-10T15:42:23;19.90;99.90
27573;DHT22;15009;53.082;8.768;2022-07-10T15:45:27;19.50;99.90
27573;DHT22;15009;53.082;8.768;2022-07-10T15:48:27;19.70;99.90
27573;DHT22;15009;53.082;8.768;2022-07-10T15:51:28;19.70;99.90
27573;DHT22;15009;53.082;8.768;2022-07-10T15:54:29;19.30;99.90
27573;DHT22;15009;53.082;8.768;2022-07-10T15:57:29;19.30;99.90
27573;DHT22;15009;53.082;8.768;2022-07-10T16:00:30;19.20;99.90
27573;DHT22;15009;53.082;8.768;2022-07-10T16:03:31;19.00;99.90
27573;DHT22;15009;53.082;8.768;2022-07-10T16:06:31;19.00;99.90
27573;DHT22;15009;53.082;8.768;2022-07-10T16:09:32;19.10;99.90
27573;DHT22;15009;53.082;8.768;2022-07-10T16:12:32;19.10;99.90
27573;DHT22;15009;53.082;8.768;2022-07-10T16:15:33;19.30;99.90
27573;DHT22;15009;53.082;8.768;2022-07-10T16:18:34;19.20;99.90
27573;DHT22;15009;53.082;8.768;2022-07-10T16:21:35;19.30;99.90
27573;DHT22;15009;53.082;8.768;2022-07-10T16:24:35;19.30;99.90
27573;DHT22;15009;53.082;8.768;2022-07-10T16:27:56;19.20;99.90
27573;DHT22;15009;53.082;8.768;2022-07-10T16:30:57;19.00;99.90
27573;DHT22;15009;53.082;8.768;2022-07-10T16:34:00;18.90;99.90
27573;DHT22;15009;53.082;8.768;2022-07-10T16:37:03;18.90;99.90
27573;DHT22;15009;53.082;8.768;2022-07-10T16:40:04;18.90;99.90
27573;DHT22;15009;53.082;8.768;2022-07-10T16:43:05;19.20;99.90
27573;DHT22;15009;53.082;8.768;2022-07-10T16:46:06;19.20;99.90
27573;DHT22;15009;53.082;8.768;2022-07-10T16:49:06;19.30;99.90
27573;DHT22;15009;53.082;8.768;2022-07-10T16:52:07;19.50;99.90
27573;DHT22;15009;53.082;8.768;2022-07-10T16:55:09;19.30;99.90
27573;DHT22;15009;53.082;8.768;2022-07-10T16:58:10;19.30;99.90
27573;DHT22;15009;53.082;8.768;2022-07-10T17:01:12;19.30;99.90
27573;DHT22;15009;53.082;8.768;2022-07-10T17:04:13;19.20;99.90
27573;DHT22;15009;53.082;8.768;2022-07-10T17:07:14;18.90;99.90
27573;DHT22;15009;53.082;8.768;2022-07-10T17:10:14;19.00;99.90
27573;DHT22;15009;53.082;8.768;2022-07-10T17:13:15;19.00;99.90
27573;DHT22;15009;53.082;8.768;2022-07-10T17:16:16;19.20;99.90
27573;DHT22;15009;53.082;8.768;2022-07-10T17:19:16;19.20;99.90
27573;DHT22;15009;53.082;8.768;2022-07-10T17:22:18;18.90;99.90
27573;DHT22;15009;53.082;8.768;2022-07-10T17:25:19;18.80;99.90
27573;DHT22;15009;53.082;8.768;2022-07-10T17:28:20;18.90;99.90
27573;DHT22;15009;53.082;8.768;2022-07-10T17:31:22;18.90;99.90
27573;DHT22;15009;53.082;8.768;2022-07-10T17:34:22;18.80;99.90
27573;DHT22;15009;53.082;8.768;2022-07-10T17:37:23;18.80;99.90
27573;DHT22;15009;53.082;8.768;2022-07-10T17:40:23;18.70;99.90
27573;DHT22;15009;53.082;8.768;2022-07-10T17:43:26;18.90;99.90
27573;DHT22;15009;53.082;8.768;2022-07-10T17:46:26;18.90;99.90
27573;DHT22;15009;53.082;8.768;2022-07-10T17:49:27;19.10;99.90
27573;DHT22;15009;53.082;8.768;2022-07-10T17:52:31;18.60;99.90
27573;DHT22;15009;53.082;8.768;2022-07-10T17:55:31;18.50;99.90
27573;DHT22;15009;53.082;8.768;2022-07-10T17:58:32;18.50;99.90
27573;DHT22;15009;53.082;8.768;2022-07-10T18:01:33;18.40;99.90
27573;DHT22;15009;53.082;8.768;2022-07-10T18:04:33;18.30;99.90
27573;DHT22;15009;53.082;8.768;2022-07-10T18:07:34;18.00;99.90
27573;DHT22;15009;53.082;8.768;2022-07-10T18:10:35;18.00;99.90
27573;DHT22;15009;53.082;8.768;2022-07-10T18:13:36;18.00;99.90
27573;DHT22;15009;53.082;8.768;2022-07-10T18:16:37;18.00;99.90
27573;DHT22;15009;53.082;8.768;2022-07-10T18:19:38;17.90;99.90
27573;DHT22;15009;53.082;8.768;2022-07-10T18:22:38;17.80;99.90
27573;DHT22;15009;53.082;8.768;2022-07-10T18:25:39;17.80;99.90
27573;DHT22;15009;53.082;8.768;2022-07-10T18:28:40;17.70;99.90
27573;DHT22;15009;53.082;8.768;2022-07-10T18:31:41;17.80;99.90
27573;DHT22;15009;53.082;8.768;2022-07-10T18:34:42;17.60;99.90
27573;DHT22;15009;53.082;8.768;2022-07-10T18:37:42;17.70;99.90
27573;DHT22;15009;53.082;8.768;2022-07-10T18:40:43;17.80;99.90
27573;DHT22;15009;53.082;8.768;2022-07-10T18:43:43;17.70;99.90
27573;DHT22;15009;53.082;8.768;2022-07-10T18:46:44;17.70;99.90
27573;DHT22;15009;53.082;8.768;2022-07-10T18:49:45;17.60;99.90
27573;DHT22;15009;53.082;8.768;2022-07-10T18:52:45;17.50;99.90
27573;DHT22;15009;53.082;8.768;2022-07-10T18:55:46;17.50;99.90
27573;DHT22;15009;53.082;8.768;2022-07-10T18:58:46;16.90;99.90
27573;DHT22;15009;53.082;8.768;2022-07-10T19:01:47;16.60;99.90
27573;DHT22;15009;53.082;8.768;2022-07-10T19:04:48;16.70;99.90
27573;DHT22;15009;53.082;8.768;2022-07-10T19:07:48;16.80;99.90
27573;DHT22;15009;53.082;8.768;2022-07-10T19:10:51;16.90;99.90
27573;DHT22;15009;53.082;8.768;2022-07-10T19:13:51;17.10;99.90
27573;DHT22;15009;53.082;8.768;2022-07-10T19:16:53;17.10;99.90
27573;DHT22;15009;53.082;8.768;2022-07-10T19:19:53;17.20;99.90
27573;DHT22;15009;53.082;8.768;2022-07-10T19:22:54;17.10;99.90